Time;durP1;ratioP1;P1;durP2;ratioP2;P2;SDS_P1;SDS_P2;PMS_P1;PMS_P2;Temp;Humidity;BMP_temperature;BMP_pressure;BME280_temperature;BME280_humidity;BME280_pressure;Samples;Min_cycle;Max_cycle;Signal;HPM_P1;HPM_P2
2021/03/31 00:00:40;;;;;;;31.15;17.35;;;;;;;4.97;71.59;102273.16;1862769;77;21119;-49
2021/03/31 00:03:12;;;;;;;30.60;14.33;;;;;;;5.02;71.41;102282.11;1862707;77;21363;-49
2021/03/31 00:05:40;;;;;;;28.45;13.90;;;;;;;5.03;71.34;102277.25;1862735;77;21131;-49
2021/03/31 00:08:08;;;;;;;28.80;13.60;;;;;;;5.05;71.24;102274.17;1862680;77;21122;-49
2021/03/31 00:10:42;;;;;;;27.87;14.73;;;;;;;5.07;71.20;102278.16;1862664;77;21122;-49
2021/03/31 00:13:11;;;;;;;25.23;14.28;;;;;;;5.08;71.06;102278.19;1862914;77;21035;-49
2021/03/31 00:15:39;;;;;;;31.73;14.78;;;;;;;5.09;71.02;102273.33;1862772;77;21365;-49
2021/03/31 00:18:08;;;;;;;33.45;14.35;;;;;;;5.11;70.99;102278.23;1862653;77;21142;-49
2021/03/31 00:20:38;;;;;;;24.92;14.00;;;;;;;5.11;71.01;102276.02;1862730;77;21043;-50
2021/03/31 00:23:10;;;;;;;24.23;13.22;;;;;;;5.13;71.03;102277.80;1862793;77;21111;-49
2021/03/31 00:25:38;;;;;;;25.17;12.75;;;;;;;5.15;70.95;102274.72;1862868;77;21568;-50
2021/03/31 00:28:09;;;;;;;32.03;15.98;;;;;;;5.18;70.92;102272.98;1862963;77;22270;-49
2021/03/31 00:30:37;;;;;;;26.37;15.08;;;;;;;5.17;70.86;102268.11;1862925;77;21544;-49
2021/03/31 00:33:05;;;;;;;26.20;14.07;;;;;;;5.15;70.82;102269.86;1862839;77;21040;-49
2021/03/31 00:35:33;;;;;;;32.75;16.97;;;;;;;5.10;70.85;102265.81;1862860;77;21032;-48
2021/03/31 00:38:01;;;;;;;38.30;18.37;;;;;;;5.08;70.87;102268.89;1861621;76;21055;-49
2021/03/31 00:40:37;;;;;;;40.40;19.80;;;;;;;4.99;70.93;102260.81;1859533;77;21371;-49
2021/03/31 00:43:05;;;;;;;36.83;18.90;;;;;;;4.99;70.93;102260.81;1859423;77;21154;-49
2021/03/31 00:45:34;;;;;;;48.60;22.65;;;;;;;4.93;71.26;102262.04;1833636;77;21106;-49
2021/03/31 00:48:04;;;;;;;48.70;24.27;;;;;;;4.87;71.48;102267.73;1821076;78;21058;-49
2021/03/31 00:50:32;;;;;;;49.18;25.57;;;;;;;4.82;71.71;102260.57;1824265;78;21483;-49
2021/03/31 00:53:00;;;;;;;58.17;27.70;;;;;;;4.72;72.00;102256.89;1824197;78;21348;-49
2021/03/31 00:55:29;;;;;;;65.60;31.37;;;;;;;4.64;72.37;102259.47;1824138;78;21575;-48
2021/03/31 00:57:57;;;;;;;79.00;32.08;;;;;;;4.54;72.89;102259.78;1858133;77;21126;-48
2021/03/31 01:00:25;;;;;;;92.47;35.83;;;;;;;4.45;73.46;102260.95;1859602;77;21051;-49
2021/03/31 01:02:53;;;;;;;83.72;35.15;;;;;;;4.34;73.79;102262.12;1859534;77;21056;-49
2021/03/31 01:05:24;;;;;;;77.10;36.65;;;;;;;4.21;74.17;102259.70;1859569;77;21320;-49
2021/03/31 01:07:52;;;;;;;86.92;36.53;;;;;;;4.05;74.48;102262.56;1859545;77;21067;-49
2021/03/31 01:10:24;;;;;;;79.72;37.40;;;;;;;3.90;74.96;102263.20;1859672;77;21118;-49
2021/03/31 01:13:20;;;;;;;83.05;40.05;;;;;;;3.72;75.50;102263.33;1859556;77;21551;-49
2021/03/31 01:16:13;;;;;;;72.03;35.03;;;;;;;3.61;76.11;102264.00;1859605;77;21137;-49
2021/03/31 01:19:00;;;;;;;77.92;34.13;;;;;;;3.48;76.79;102258.91;1859519;77;21734;-49
2021/03/31 01:22:12;;;;;;;69.07;29.67;;;;;;;3.39;77.58;102256.97;1859554;77;21556;-48
2021/03/31 01:25:01;;;;;;;62.00;25.77;;;;;;;3.34;78.16;102256.87;1859597;77;21035;-50
2021/03/31 01:27:55;;;;;;;56.37;25.08;;;;;;;3.39;78.62;102253.00;1859525;77;21087;-49
2021/03/31 01:30:40;;;;;;;59.98;26.02;;;;;;;3.48;78.81;102260.23;1859549;77;21080;-50
2021/03/31 01:33:35;;;;;;;55.40;26.48;;;;;;;3.54;78.81;102256.36;1859669;77;21691;-49
2021/03/31 01:36:03;;;;;;;51.30;25.15;;;;;;;3.58;78.81;102252.89;1859768;77;21068;-48
2021/03/31 01:38:31;;;;;;;46.53;22.75;;;;;;;3.59;78.80;102249.38;1859390;76;21055;-49
2021/03/31 01:40:59;;;;;;;51.58;21.68;;;;;;;3.62;78.83;102254.73;1826901;77;21536;-49
2021/03/31 01:43:26;;;;;;;40.70;20.43;;;;;;;3.65;78.81;102248.19;1800335;77;21171;-49
2021/03/31 01:45:56;;;;;;;42.58;21.07;;;;;;;3.68;78.74;102252.62;1828518;77;21649;-48
2021/03/31 01:48:27;;;;;;;46.70;23.10;;;;;;;3.70;78.67;102250.89;1824036;78;21063;-48
2021/03/31 01:50:58;;;;;;;36.20;19.75;;;;;;;3.72;78.59;102243.44;1824262;78;21487;-49
2021/03/31 01:53:26;;;;;;;57.17;23.25;;;;;;;3.73;78.50;102242.98;1824081;78;21189;-49
2021/03/31 01:55:54;;;;;;;51.28;24.02;;;;;;;3.73;78.40;102247.88;1828023;77;21122;-49
2021/03/31 01:58:23;;;;;;;53.23;24.55;;;;;;;3.71;78.35;102245.62;1859549;77;22267;-49
2021/03/31 02:00:51;;;;;;;48.00;23.22;;;;;;;3.69;78.33;102250.02;1859503;77;21043;-49
2021/03/31 02:03:19;;;;;;;57.60;24.47;;;;;;;3.66;78.39;102247.31;1859542;77;21116;-49
2021/03/31 02:05:47;;;;;;;51.42;23.40;;;;;;;3.63;78.39;102245.91;1859428;77;21119;-49
2021/03/31 02:08:15;;;;;;;45.58;23.10;;;;;;;3.58;78.49;102243.61;1859544;77;21020;-49
2021/03/31 02:10:44;;;;;;;49.08;23.30;;;;;;;3.55;78.61;102244.88;1859483;77;21364;-49
2021/03/31 02:13:12;;;;;;;45.30;21.20;;;;;;;3.53;78.66;102250.14;1859370;77;21080;-49
2021/03/31 02:15:41;;;;;;;45.10;21.82;;;;;;;3.51;78.79;102248.35;1859449;77;21051;-49
2021/03/31 02:18:15;;;;;;;46.15;23.00;;;;;;;3.50;78.96;102249.22;1826874;77;21131;-49
2021/03/31 02:20:46;;;;;;;45.08;21.37;;;;;;;3.50;78.99;102246.56;1859688;77;21119;-49
2021/03/31 02:23:14;;;;;;;44.58;17.52;;;;;;;3.49;79.09;102248.76;1859491;77;21193;-49
2021/03/31 02:25:42;;;;;;;44.48;20.37;;;;;;;3.47;79.09;102246.06;1859400;77;21059;-49
2021/03/31 02:28:10;;;;;;;37.73;19.87;;;;;;;3.47;79.11;102246.52;1859501;77;21120;-49
2021/03/31 02:30:38;;;;;;;41.98;21.23;;;;;;;3.47;79.21;102243.86;1859514;77;21111;-49
2021/03/31 02:33:07;;;;;;;37.45;19.65;;;;;;;3.43;79.33;102247.78;1859432;77;21535;-49
2021/03/31 02:35:37;;;;;;;34.67;17.17;;;;;;;3.42;79.37;102241.98;1827469;77;22210;-49
2021/03/31 02:38:07;;;;;;;38.13;17.85;;;;;;;3.41;79.41;102240.20;1859330;77;21480;-49
2021/03/31 02:40:36;;;;;;;36.45;18.30;;;;;;;3.42;79.53;102244.64;1859574;77;21480;-49
2021/03/31 02:43:06;;;;;;;43.28;19.25;;;;;;;3.42;79.61;102244.64;1859568;77;21144;-49
2021/03/31 02:45:33;;;;;;;33.28;16.93;;;;;;;3.42;79.66;102241.11;1833738;77;21479;-49
2021/03/31 02:48:02;;;;;;;43.50;17.95;;;;;;;3.41;79.73;102249.48;1824083;78;21692;-49
2021/03/31 02:50:30;;;;;;;41.85;18.50;;;;;;;3.39;79.90;102245.92;1823990;78;21118;-49
2021/03/31 02:52:58;;;;;;;39.33;18.82;;;;;;;3.37;80.04;102242.34;1823988;78;21094;-49
2021/03/31 02:55:26;;;;;;;44.30;18.20;;;;;;;3.36;80.13;102245.86;1824077;77;21070;-48
2021/03/31 02:57:54;;;;;;;36.70;16.95;;;;;;;3.36;80.28;102246.31;1857380;77;21060;-48
2021/03/31 03:00:24;;;;;;;36.33;18.15;;;;;;;3.36;80.44;102247.64;1859447;77;21355;-49
2021/03/31 03:02:51;;;;;;;29.23;16.40;;;;;;;3.36;80.46;102239.69;1826547;77;21063;-49
2021/03/31 03:05:20;;;;;;;28.17;14.93;;;;;;;3.35;80.54;102234.80;1859473;77;21099;-49
2021/03/31 03:07:48;;;;;;;33.18;16.90;;;;;;;3.35;80.67;102239.22;1859391;77;21083;-49
2021/03/31 03:10:17;;;;;;;32.93;15.78;;;;;;;3.34;80.74;102244.94;1859413;77;21135;-48
2021/03/31 03:12:55;;;;;;;30.95;14.65;;;;;;;3.33;80.82;102247.13;1800514;77;21538;-48
2021/03/31 03:15:25;;;;;;;37.42;18.40;;;;;;;3.33;80.88;102240.51;1859369;77;21143;-48
2021/03/31 03:17:55;;;;;;;36.33;18.40;;;;;;;3.31;80.90;102247.54;1859361;77;21051;-48
2021/03/31 03:20:24;;;;;;;35.35;17.32;;;;;;;3.29;81.03;102245.30;1859455;77;21044;-49
2021/03/31 03:22:53;;;;;;;32.65;17.70;;;;;;;3.27;81.17;102245.70;1859442;77;21033;-48
2021/03/31 03:25:24;;;;;;;35.70;18.02;;;;;;;3.23;81.21;102244.73;1859373;77;21365;-49
2021/03/31 03:27:51;;;;;;;32.85;16.97;;;;;;;3.22;81.26;102247.37;1859392;77;21059;-49
2021/03/31 03:30:20;;;;;;;27.35;15.65;;;;;;;3.19;81.28;102247.28;1859447;77;21122;-49
2021/03/31 03:32:50;;;;;;;29.30;16.23;;;;;;;3.19;81.41;102248.20;1859489;77;21202;-49
2021/03/31 03:35:21;;;;;;;26.70;14.95;;;;;;;3.18;81.51;102245.50;1859416;77;21111;-49
2021/03/31 03:37:51;;;;;;;27.52;13.60;;;;;;;3.20;81.56;102242.45;1859315;77;21351;-48
2021/03/31 03:40:26;;;;;;;29.23;16.17;;;;;;;3.19;81.64;102244.63;1859225;77;21129;-48
2021/03/31 03:42:54;;;;;;;29.77;15.45;;;;;;;3.19;81.67;102247.28;1859469;77;21071;-48
2021/03/31 03:45:24;;;;;;;36.50;18.82;;;;;;;3.17;81.76;102244.63;1839943;77;21050;-48
2021/03/31 03:47:52;;;;;;;33.50;18.25;;;;;;;3.15;81.82;102243.25;1829287;78;21587;-50
2021/03/31 03:50:20;;;;;;;29.92;16.23;;;;;;;3.13;81.95;102242.78;1829288;78;21632;-48
2021/03/31 03:52:49;;;;;;;30.65;17.35;;;;;;;3.12;82.04;102248.50;1829138;78;21113;-49
2021/03/31 03:55:22;;;;;;;32.30;17.40;;;;;;;3.11;82.10;102249.36;1829286;78;21130;-49
2021/03/31 03:57:50;;;;;;;42.45;19.20;;;;;;;3.12;82.18;102251.59;1856568;77;21118;-49
2021/03/31 04:00:25;;;;;;;32.10;17.02;;;;;;;3.12;82.28;102248.50;1859709;77;21559;-49
2021/03/31 04:02:54;;;;;;;32.50;16.32;;;;;;;3.15;82.37;102249.00;1859771;77;21218;-49
2021/03/31 04:05:22;;;;;;;36.25;19.48;;;;;;;3.20;82.33;102249.08;1859695;77;21725;-49
2021/03/31 04:07:51;;;;;;;36.55;17.65;;;;;;;3.25;82.36;102246.98;1859516;77;21107;-49
2021/03/31 04:10:20;;;;;;;37.38;19.85;;;;;;;3.31;82.31;102247.54;1859576;77;21127;-49
2021/03/31 04:12:51;;;;;;;42.15;17.82;;;;;;;3.35;82.10;102247.18;1859653;77;21115;-49
2021/03/31 04:15:18;;;;;;;38.60;19.05;;;;;;;3.40;81.84;102250.36;1859691;77;22188;-49
2021/03/31 04:17:46;;;;;;;33.18;18.75;;;;;;;3.41;81.66;102253.47;1826727;77;21166;-48
2021/03/31 04:20:20;;;;;;;33.50;16.93;;;;;;;3.46;81.60;102249.59;1859550;77;21076;-49
2021/03/31 04:22:48;;;;;;;29.00;15.78;;;;;;;3.50;81.49;102246.12;1859583;77;21119;-49
2021/03/31 04:25:17;;;;;;;38.05;18.87;;;;;;;3.56;81.28;102238.30;1859612;77;21021;-49
2021/03/31 04:27:48;;;;;;;27.70;15.65;;;;;;;3.62;81.04;102232.18;1859645;77;21454;-51
2021/03/31 04:30:18;;;;;;;37.50;18.57;;;;;;;3.68;80.96;102234.97;1859585;77;21127;-49
2021/03/31 04:32:48;;;;;;;32.67;16.65;;;;;;;3.76;80.68;102234.20;1859632;77;21472;-49
2021/03/31 04:35:20;;;;;;;37.10;17.70;;;;;;;3.83;80.51;102232.09;1859496;77;21139;-49
2021/03/31 04:37:48;;;;;;;35.78;18.98;;;;;;;3.90;80.14;102236.66;1859556;77;21539;-49
2021/03/31 04:40:18;;;;;;;37.10;18.67;;;;;;;3.94;79.97;102242.47;1861839;77;21356;-49
2021/03/31 04:42:46;;;;;;;33.05;17.82;;;;;;;3.97;79.77;102235.89;1862940;77;21600;-49
2021/03/31 04:45:15;;;;;;;31.15;18.25;;;;;;;4.04;79.67;102226.69;1846414;77;21168;-49
2021/03/31 04:47:43;;;;;;;29.10;15.93;;;;;;;4.13;79.48;102236.14;1835247;77;21164;-50
2021/03/31 04:50:13;;;;;;;36.65;17.50;;;;;;;4.21;79.29;102229.17;1835310;77;21098;-49
2021/03/31 04:52:41;;;;;;;38.85;18.05;;;;;;;4.33;78.87;102239.54;1835269;77;21554;-48
2021/03/31 04:55:10;;;;;;;32.45;17.15;;;;;;;4.39;78.51;102231.66;1835160;77;21094;-49
2021/03/31 04:57:38;;;;;;;38.20;18.12;;;;;;;4.52;78.17;102236.25;1858019;77;21555;-49
2021/03/31 05:00:07;;;;;;;36.53;17.98;;;;;;;4.61;77.76;102234.62;1862825;77;21162;-49
2021/03/31 05:02:35;;;;;;;36.05;17.40;;;;;;;4.71;77.62;102240.50;1862838;77;21046;-49
2021/03/31 05:05:04;;;;;;;41.90;18.87;;;;;;;4.81;77.44;102237.11;1862826;77;21182;-49
2021/03/31 05:07:32;;;;;;;40.38;20.00;;;;;;;4.94;77.18;102232.83;1862751;77;21119;-49
2021/03/31 05:10:00;;;;;;;42.33;19.12;;;;;;;5.20;76.51;102234.02;1862771;77;21123;-48
2021/03/31 05:12:28;;;;;;;38.20;20.30;;;;;;;5.20;76.51;102234.02;1862923;77;21151;-49
2021/03/31 05:14:56;;;;;;;61.68;20.32;;;;;;;5.31;76.12;102231.03;1862877;77;21047;-49
2021/03/31 05:17:25;;;;;;;43.33;19.35;;;;;;;5.49;75.94;102237.42;1862880;77;21383;-49
2021/03/31 05:19:53;;;;;;;35.15;18.80;;;;;;;5.63;75.29;102232.23;1862733;77;21064;-50
2021/03/31 05:22:22;;;;;;;35.73;19.67;;;;;;;5.87;74.36;102240.89;1862926;77;21505;-49
2021/03/31 05:24:49;;;;;;;39.70;18.07;;;;;;;5.87;74.36;102240.89;1862891;77;21126;-49
2021/03/31 05:27:17;;;;;;;45.33;19.45;;;;;;;5.90;74.43;102236.92;1862786;77;21155;-49
2021/03/31 05:29:45;;;;;;;44.48;20.85;;;;;;;6.04;74.42;102233.49;1862811;77;21200;-50
2021/03/31 05:32:13;;;;;;;37.28;20.88;;;;;;;6.17;73.55;102238.05;1862755;77;21115;-50
2021/03/31 05:34:41;;;;;;;42.40;19.92;;;;;;;6.25;73.41;102239.44;1862827;77;21118;-50
2021/03/31 05:37:11;;;;;;;51.00;23.02;;;;;;;6.34;73.30;102239.48;1862831;77;21122;-50
2021/03/31 05:39:39;;;;;;;40.50;20.25;;;;;;;6.38;72.99;102236.41;1862651;77;21100;-49
2021/03/31 05:42:09;;;;;;;49.27;23.18;;;;;;;6.50;73.04;102237.80;1862759;77;21620;-49
2021/03/31 05:44:37;;;;;;;48.10;22.27;;;;;;;6.60;72.62;102241.41;1853500;77;21137;-50
2021/03/31 05:47:06;;;;;;;43.42;20.97;;;;;;;6.67;72.41;102243.67;1835192;78;21468;-50
2021/03/31 05:49:34;;;;;;;34.25;19.27;;;;;;;6.75;72.35;102240.63;1842715;76;21035;-50
2021/03/31 05:52:03;;;;;;;38.28;19.42;;;;;;;6.91;71.92;102238.01;1783334;80;21054;-50
2021/03/31 05:54:31;;;;;;;36.17;18.48;;;;;;;7.01;71.23;102240.72;1784960;80;21452;-50
2021/03/31 05:57:00;;;;;;;33.28;17.92;;;;;;;7.12;70.94;102240.75;1784162;80;21150;-50
2021/03/31 05:59:29;;;;;;;32.60;16.62;;;;;;;7.26;70.82;102250.59;1786712;80;21173;-49
2021/03/31 06:01:56;;;;;;;24.30;15.63;;;;;;;7.39;70.64;102252.84;1783264;80;21165;-50
2021/03/31 06:04:24;;;;;;;27.13;14.78;;;;;;;7.48;70.30;102262.66;1760317;80;21102;-50
2021/03/31 06:06:52;;;;;;;26.20;13.53;;;;;;;7.48;70.08;102254.19;1786626;80;21408;-49
2021/03/31 06:09:20;;;;;;;22.40;13.55;;;;;;;7.44;69.76;102249.31;1786467;80;21137;-49
2021/03/31 06:11:52;;;;;;;20.85;13.05;;;;;;;7.41;70.15;102253.31;1786581;80;21173;-54
2021/03/31 06:14:35;;;;;;;23.38;12.37;;;;;;;7.39;70.35;102253.72;1786568;80;21051;-50
2021/03/31 06:17:14;;;;;;;21.12;12.25;;;;;;;7.41;70.22;102257.31;1786556;80;21095;-50
2021/03/31 06:19:44;;;;;;;28.42;13.98;;;;;;;7.48;70.05;102256.86;1783219;80;21431;-50
2021/03/31 06:22:25;;;;;;;21.65;13.05;;;;;;;7.59;69.96;102255.55;1786467;80;21165;-50
2021/03/31 06:25:23;;;;;;;21.33;13.43;;;;;;;7.70;69.91;102252.89;1782705;80;21141;-49
2021/03/31 06:27:53;;;;;;;22.15;12.73;;;;;;;7.81;69.51;102256.47;1785713;80;21087;-49
2021/03/31 06:30:24;;;;;;;21.57;12.57;;;;;;;7.82;69.01;102253.34;1783307;80;21067;-50
2021/03/31 06:32:55;;;;;;;24.77;12.47;;;;;;;7.73;68.80;102255.55;1786552;80;21246;-51
2021/03/31 06:35:28;;;;;;;26.75;14.07;;;;;;;7.60;69.46;102253.31;1780472;80;21123;-49
2021/03/31 06:38:07;;;;;;;22.32;13.10;;;;;;;7.58;69.62;102264.44;1777286;80;21240;-51
2021/03/31 06:40:46;;;;;;;22.20;12.68;;;;;;;7.74;69.51;102245.36;1796329;79;21475;-50
2021/03/31 06:43:21;;;;;;;20.12;12.28;;;;;;;8.14;68.58;102256.48;1794943;79;21141;-50
2021/03/31 06:46:10;;;;;;;24.18;12.88;;;;;;;8.49;67.22;102259.99;1783851;79;22038;-50
2021/03/31 06:48:42;;;;;;;24.85;13.05;;;;;;;8.58;66.55;102251.54;1781033;80;21103;-50
2021/03/31 06:51:28;;;;;;;22.02;12.47;;;;;;;8.52;66.10;102252.00;1777299;80;21145;-49
2021/03/31 06:53:59;;;;;;;23.45;13.50;;;;;;;8.37;66.45;102252.89;1786597;80;21058;-49
2021/03/31 06:56:30;;;;;;;20.65;13.43;;;;;;;8.20;66.88;102248.45;1751062;81;21431;-50
2021/03/31 06:59:00;;;;;;;21.50;13.38;;;;;;;8.02;67.18;102248.02;1770677;81;21208;-50
2021/03/31 07:01:31;;;;;;;21.37;13.83;;;;;;;7.85;67.81;102242.69;1770520;81;21124;-51
2021/03/31 07:04:05;;;;;;;25.97;13.78;;;;;;;7.69;68.40;102250.68;1717356;81;21148;-51
2021/03/31 07:06:33;;;;;;;28.47;13.77;;;;;;;7.58;68.95;102246.66;1770856;81;21052;-50
2021/03/31 07:09:00;;;;;;;19.52;12.33;;;;;;;7.47;69.73;102251.08;1770559;81;21096;-50
2021/03/31 07:11:41;;;;;;;21.85;12.55;;;;;;;7.42;70.03;102253.76;1770658;81;21376;-50
2021/03/31 07:14:10;;;;;;;35.38;14.00;;;;;;;7.38;70.26;102255.06;1770489;81;21128;-49
2021/03/31 07:16:38;;;;;;;24.47;13.30;;;;;;;7.33;70.80;102259.05;1770673;81;21533;-50
2021/03/31 07:19:07;;;;;;;24.02;13.48;;;;;;;7.31;71.30;102250.16;1770489;81;21140;-49
2021/03/31 07:21:37;;;;;;;23.10;14.50;;;;;;;7.30;71.41;102253.70;1766140;81;21112;-50
2021/03/31 07:24:08;;;;;;;26.15;14.13;;;;;;;7.22;71.57;102251.48;1770583;81;21253;-50
2021/03/31 07:26:36;;;;;;;27.65;13.70;;;;;;;7.16;72.12;102242.54;1770613;81;21446;-50
2021/03/31 07:29:03;;;;;;;26.02;13.25;;;;;;;7.13;72.60;102247.87;1770624;80;21145;-49
2021/03/31 07:31:31;;;;;;;22.75;13.15;;;;;;;7.06;72.80;102243.84;1770595;81;21164;-50
2021/03/31 07:34:28;;;;;;;22.75;12.60;;;;;;;7.08;73.12;102234.97;1770547;80;21168;-52
2021/03/31 07:36:56;;;;;;;21.07;12.60;;;;;;;7.08;73.36;102234.09;1789255;79;21250;-51
2021/03/31 07:39:29;;;;;;;17.62;12.30;;;;;;;7.06;73.02;102236.74;1729534;79;21064;-50
2021/03/31 07:41:57;;;;;;;22.02;12.85;;;;;;;7.09;73.02;102227.41;1748020;81;21577;-50
2021/03/31 07:44:29;;;;;;;19.55;12.65;;;;;;;7.17;72.88;102226.98;1777819;80;21157;-49
2021/03/31 07:46:56;;;;;;;20.97;13.00;;;;;;;7.19;72.41;102234.13;1781818;80;21130;-50
2021/03/31 07:49:24;;;;;;;22.65;12.98;;;;;;;7.12;72.47;102226.08;1781239;80;21523;-58
2021/03/31 07:52:02;;;;;;;22.35;12.88;;;;;;;7.13;72.89;102225.66;1743911;80;21105;-57
2021/03/31 07:54:32;;;;;;;20.70;12.25;;;;;;;7.12;72.65;102220.75;1772603;80;21174;-58
2021/03/31 07:57:24;;;;;;;20.27;13.70;;;;;;;7.11;72.37;102216.30;1774540;79;21128;-58
2021/03/31 07:59:52;;;;;;;26.17;12.95;;;;;;;7.12;72.91;102211.41;1782474;80;21165;-59
2021/03/31 08:02:21;;;;;;;23.75;14.13;;;;;;;7.08;73.27;102210.96;1787641;80;21443;-58
2021/03/31 08:04:49;;;;;;;21.57;12.80;;;;;;;7.06;73.39;102211.83;1735215;80;21189;-58
2021/03/31 08:07:25;;;;;;;21.25;12.15;;;;;;;7.08;73.01;102205.63;1775727;80;21178;-58
2021/03/31 08:09:53;;;;;;;22.35;13.08;;;;;;;7.15;72.89;102212.75;1789263;80;21074;-59
2021/03/31 08:12:30;;;;;;;22.20;12.47;;;;;;;7.22;72.91;102213.66;1737015;80;21114;-57
2021/03/31 08:14:58;;;;;;;19.73;13.50;;;;;;;7.26;72.65;102207.91;1770306;81;22274;-57
2021/03/31 08:17:30;;;;;;;22.13;11.55;;;;;;;7.31;72.44;102206.13;1781786;79;21205;-57
2021/03/31 08:20:06;;;;;;;18.55;12.78;;;;;;;7.32;72.46;102202.57;1782253;79;21637;-58
2021/03/31 08:22:40;;;;;;;20.45;12.47;;;;;;;7.33;72.34;102192.80;1770296;81;21625;-58
2021/03/31 08:25:19;;;;;;;23.18;13.32;;;;;;;7.26;72.13;102194.10;1716429;79;21138;-57
2021/03/31 08:28:09;;;;;;;21.37;12.23;;;;;;;7.24;72.34;102190.55;1761453;81;21218;-59
2021/03/31 08:30:39;;;;;;;22.15;12.05;;;;;;;7.27;71.82;102195.01;1780264;79;21677;-57
2021/03/31 08:33:11;;;;;;;18.55;11.40;;;;;;;7.28;70.87;102187.45;1720090;79;21244;-57
2021/03/31 08:35:42;;;;;;;20.17;11.70;;;;;;;7.30;70.96;102179.00;1768103;79;21184;-59
2021/03/31 08:38:16;;;;;;;20.23;12.10;;;;;;;7.37;70.50;102183.45;1792717;79;21074;-58
2021/03/31 08:40:48;;;;;;;26.55;13.38;;;;;;;7.51;69.67;102177.25;1777557;79;21178;-58
2021/03/31 08:43:21;;;;;;;23.57;12.25;;;;;;;7.53;69.25;102172.80;1765601;79;21134;-57
2021/03/31 08:45:53;;;;;;;21.10;11.73;;;;;;;7.47;69.88;102172.80;1800955;79;21598;-58
2021/03/31 08:48:42;;;;;;;18.00;11.25;;;;;;;7.52;70.05;102172.35;1811554;79;21138;-57
2021/03/31 08:51:18;;;;;;;19.45;11.43;;;;;;;7.57;69.34;102167.91;1785330;79;21067;-57
2021/03/31 08:53:46;;;;;;;18.25;11.45;;;;;;;7.62;69.28;102162.11;1810233;79;21434;-57
2021/03/31 08:56:27;;;;;;;23.50;11.45;;;;;;;7.67;69.17;102156.35;1775334;80;21142;-57
2021/03/31 08:59:04;;;;;;;21.07;11.93;;;;;;;7.66;66.94;102155.00;1711117;81;21291;-58
2021/03/31 09:01:38;;;;;;;19.37;11.67;;;;;;;7.71;66.66;102147.88;1735531;81;21199;-57
2021/03/31 09:04:22;;;;;;;18.57;10.95;;;;;;;7.71;66.22;102153.21;1712093;81;21449;-57
2021/03/31 09:06:54;;;;;;;17.17;9.93;;;;;;;7.78;65.46;102154.11;1735515;81;21315;-58
2021/03/31 09:09:27;;;;;;;15.75;10.32;;;;;;;7.90;64.61;102156.78;1760266;81;21538;-58
2021/03/31 09:12:01;;;;;;;19.32;11.33;;;;;;;8.02;64.07;102155.41;1711175;81;21250;-57
2021/03/31 09:14:31;;;;;;;20.43;12.28;;;;;;;8.17;64.28;102154.94;1733857;81;21362;-58
2021/03/31 09:17:06;;;;;;;18.23;11.12;;;;;;;8.30;65.19;102154.45;1739279;80;21192;-58
2021/03/31 09:19:40;;;;;;;20.15;12.30;;;;;;;8.30;64.50;102152.69;1752321;80;21441;-58
2021/03/31 09:22:16;;;;;;;19.67;12.25;;;;;;;8.28;65.28;102150.44;1791395;80;21121;-57
2021/03/31 09:24:52;;;;;;;19.87;12.60;;;;;;;8.30;66.28;102150.02;1792031;80;21102;-58
2021/03/31 09:27:25;;;;;;;18.00;12.53;;;;;;;8.24;67.35;102147.34;1765260;80;21156;-58
2021/03/31 09:29:54;;;;;;;20.30;11.97;;;;;;;8.13;67.32;102139.82;1792120;80;21110;-58
2021/03/31 09:32:36;;;;;;;21.42;12.18;;;;;;;8.03;68.25;102137.14;1792246;79;22117;-59
2021/03/31 09:35:11;;;;;;;16.37;10.78;;;;;;;8.00;68.34;102144.30;1792261;79;21161;-57
2021/03/31 09:37:47;;;;;;;17.07;9.83;;;;;;;7.99;67.65;102138.05;1792302;79;21024;-58
2021/03/31 09:40:24;;;;;;;20.17;11.50;;;;;;;7.98;67.00;102128.27;1787782;80;21141;-58
2021/03/31 09:43:00;;;;;;;18.77;11.22;;;;;;;7.98;66.09;102138.95;1788954;80;21495;-58
2021/03/31 09:45:30;;;;;;;17.42;10.30;;;;;;;7.98;66.67;102126.05;1790868;80;22008;-59
2021/03/31 09:47:58;;;;;;;19.20;10.95;;;;;;;8.00;65.55;102134.48;1763071;81;21163;-59
2021/03/31 09:50:28;;;;;;;15.63;9.98;;;;;;;8.06;65.15;102122.00;1782826;80;21067;-58
2021/03/31 09:53:01;;;;;;;17.67;9.40;;;;;;;8.07;65.30;102118.00;1778346;80;21130;-58
2021/03/31 09:55:28;;;;;;;11.88;7.67;;;;;;;8.08;63.98;102112.23;1786504;80;21140;-57
2021/03/31 09:57:56;;;;;;;12.53;7.22;;;;;;;8.11;63.88;102122.91;1790557;79;21671;-58
2021/03/31 10:00:26;;;;;;;13.43;8.55;;;;;;;8.12;62.87;102112.20;1772777;80;21106;-58
2021/03/31 10:02:53;;;;;;;10.45;7.15;;;;;;;8.13;62.28;102109.09;1817966;78;21130;-59
2021/03/31 10:05:24;;;;;;;11.20;8.03;;;;;;;8.14;62.98;102109.53;1774591;80;21113;-57
2021/03/31 10:08:15;;;;;;;15.20;8.35;;;;;;;8.22;62.18;102110.39;1811876;78;21138;-58
2021/03/31 10:10:49;;;;;;;13.72;7.15;;;;;;;8.29;61.49;102106.82;1801148;78;21174;-57
2021/03/31 10:13:19;;;;;;;11.15;6.58;;;;;;;8.34;58.33;102100.56;1816565;78;23587;-57
2021/03/31 10:16:00;;;;;;;14.10;7.00;;;;;;;8.34;57.73;102105.91;1811653;78;21118;-58
2021/03/31 10:18:32;;;;;;;13.03;7.33;;;;;;;8.34;57.21;102093.88;1804237;78;21150;-57
2021/03/31 10:21:01;;;;;;;13.30;7.85;;;;;;;8.36;56.68;102092.09;1739876;81;21112;-59
2021/03/31 10:23:36;;;;;;;11.08;6.90;;;;;;;8.39;56.56;102086.73;1796937;79;21379;-57
2021/03/31 10:26:27;;;;;;;12.98;7.65;;;;;;;8.41;55.65;102090.28;1778856;79;21518;-58
2021/03/31 10:29:02;;;;;;;10.48;7.67;;;;;;;8.40;55.79;102081.82;1770402;81;22351;-57
2021/03/31 10:31:44;;;;;;;11.28;7.80;;;;;;;8.38;55.46;102080.94;1766206;81;21172;-59
2021/03/31 10:34:14;;;;;;;11.00;7.85;;;;;;;8.35;55.82;102073.81;1771751;79;21161;-58
2021/03/31 10:48:33;;;;;;;12.03;7.00;;;;;;;8.29;54.78;102061.39;1763807;79;21129;-58
2021/03/31 10:51:07;;;;;;;11.03;7.40;;;;;;;8.27;55.95;102059.61;1821217;78;21272;-57
2021/03/31 10:53:40;;;;;;;14.05;7.95;;;;;;;8.28;56.56;102050.23;1820075;78;21530;-58
2021/03/31 10:56:07;;;;;;;13.68;7.85;;;;;;;8.29;56.41;102057.39;1815392;78;21141;-58
2021/03/31 10:58:35;;;;;;;11.25;7.42;;;;;;;8.29;55.36;102058.72;1789356;80;21023;-57
2021/03/31 11:01:03;;;;;;;13.80;7.92;;;;;;;8.24;55.58;102052.48;1789279;80;21068;-58
2021/03/31 11:03:32;;;;;;;11.83;7.85;;;;;;;8.22;57.21;102051.61;1789321;80;21201;-58
2021/03/31 11:06:01;;;;;;;11.83;7.78;;;;;;;8.21;57.21;102047.16;1789240;80;21178;-58
2021/03/31 11:08:29;;;;;;;13.78;7.53;;;;;;;8.21;56.99;102054.30;1789315;80;21101;-58
2021/03/31 11:10:57;;;;;;;14.18;7.70;;;;;;;8.18;58.56;102040.49;1789411;80;22343;-58
2021/03/31 11:13:26;;;;;;;10.40;6.75;;;;;;;8.16;58.09;102047.63;1789311;80;21159;-58
2021/03/31 11:15:55;;;;;;;9.48;6.17;;;;;;;8.13;57.90;102039.17;1789376;80;21552;-58
2021/03/31 11:26:47;;;;;;;12.53;7.53;;;;;;;8.13;60.28;102034.29;1789379;80;21166;-57
2021/03/31 11:29:16;;;;;;;12.43;7.22;;;;;;;8.10;59.55;102017.81;1789337;80;21111;-58
2021/03/31 11:31:44;;;;;;;10.45;6.20;;;;;;;8.11;59.56;102018.72;1789169;80;21076;-57
2021/03/31 11:34:13;;;;;;;9.85;6.35;;;;;;;8.11;58.96;102021.39;1789369;80;21075;-58
2021/03/31 11:36:41;;;;;;;9.65;6.47;;;;;;;8.09;59.70;102022.72;1789303;80;21122;-58
2021/03/31 11:39:09;;;;;;;8.38;6.10;;;;;;;8.07;60.52;102016.92;1789271;80;21122;-58
2021/03/31 11:41:38;;;;;;;11.33;5.85;;;;;;;8.02;61.04;102012.50;1787379;80;21373;-58
2021/03/31 11:44:07;;;;;;;9.60;6.70;;;;;;;8.00;60.79;102011.62;1788707;79;21127;-58
2021/03/31 11:46:35;;;;;;;11.43;7.50;;;;;;;7.96;61.41;102015.20;1817120;79;21472;-58
2021/03/31 11:49:03;;;;;;;10.13;6.62;;;;;;;7.93;62.94;102000.96;1817109;79;21098;-58
2021/03/31 11:51:31;;;;;;;10.93;6.67;;;;;;;7.88;62.47;101995.66;1817105;79;21143;-58
2021/03/31 11:53:58;;;;;;;9.20;6.45;;;;;;;7.86;60.97;101992.11;1817072;79;21736;-58
2021/03/31 11:56:26;;;;;;;8.35;5.37;;;;;;;7.84;61.25;101992.53;1801407;79;21081;-58
2021/03/31 11:58:56;;;;;;;8.03;5.12;;;;;;;7.81;61.08;101981.88;1768735;81;22392;-58